Terminal Aerodrome Forecast
Issued by NWS

Home | Current Version | Previous Version | Text Only | Print | Product List | Glossary On
Versions: 1 2 3 4 5 6 7 8 9 10 11 12 13
922
FTUS42 TJSJ 221744
TAFJMZ
TAF
TJMZ 221744Z 2218/2318 27012KT P6SM VCTS SCT025CB BKN040
      TEMPO 2218/2222 4SM SHRA BKN025 OVC050
     FM222350 08006KT P6SM SCT060
     FM231530 27010KT P6SM VCSH SCT025 BKN040
      AMD NOT SKED=

USA.gov is the U.S. government's official web portal to all federal, state and local government web resources and services.